Time;durP1;ratioP1;P1;durP2;ratioP2;P2;SDS_P1;SDS_P2;PMS_P1;PMS_P2;Temp;Humidity;BMP_temperature;BMP_pressure;BME280_temperature;BME280_humidity;BME280_pressure;Samples;Min_cycle;Max_cycle;Signal;HPM_P1;HPM_P2
2023/06/14 00:02:08;;;;;;;9.47;6.90;;;15.00;63.00;;;;;;5013232;28;20091;-82
2023/06/14 00:04:35;;;;;;;19.92;8.23;;;15.00;63.80;;;;;;5015632;28;20022;-82
2023/06/14 00:07:01;;;;;;;14.13;6.80;;;15.00;64.10;;;;;;5012396;28;20041;-82
2023/06/14 00:09:27;;;;;;;15.80;7.45;;;14.90;63.80;;;;;;5017436;28;20022;-82
2023/06/14 00:11:52;;;;;;;14.70;6.78;;;14.90;63.70;;;;;;5013097;28;20033;-84
2023/06/14 00:14:18;;;;;;;15.18;7.18;;;14.90;63.50;;;;;;5006409;28;20084;-83
2023/06/14 00:16:44;;;;;;;15.63;6.60;;;14.90;63.80;;;;;;5015195;28;20026;-82
2023/06/14 00:19:10;;;;;;;13.70;7.68;;;14.90;63.90;;;;;;5016360;28;20028;-82
2023/06/14 00:21:37;;;;;;;10.88;6.00;;;14.80;64.00;;;;;;4996649;28;20022;-83
2023/06/14 00:24:04;;;;;;;9.30;6.25;;;14.80;64.00;;;;;;4996015;28;20029;-82
2023/06/14 00:26:30;;;;;;;16.00;6.67;;;14.80;63.80;;;;;;5013189;28;20557;-81
2023/06/14 00:28:56;;;;;;;12.27;7.25;;;14.80;63.80;;;;;;5012102;28;20021;-83
2023/06/14 00:31:22;;;;;;;12.60;7.32;;;14.80;64.00;;;;;;5012237;28;20018;-83
2023/06/14 00:33:48;;;;;;;12.02;6.47;;;14.80;64.00;;;;;;5015664;28;20029;-82
2023/06/14 00:36:14;;;;;;;10.73;6.07;;;14.80;63.90;;;;;;5017607;28;20038;-82
2023/06/14 00:38:40;;;;;;;14.30;6.40;;;14.80;64.00;;;;;;5017245;28;20477;-82
2023/06/14 00:41:06;;;;;;;14.77;6.70;;;14.80;64.20;;;;;;5025815;28;20053;-82
2023/06/14 00:43:34;;;;;;;14.02;6.63;;;14.80;64.40;;;;;;5015981;28;20476;-82
2023/06/14 00:46:00;;;;;;;9.20;6.20;;;14.70;64.40;;;;;;5015300;28;20025;-83
2023/06/14 00:48:27;;;;;;;11.38;6.90;;;14.70;64.70;;;;;;5015125;28;20021;-82
2023/06/14 00:50:53;;;;;;;11.00;7.10;;;14.70;64.90;;;;;;5015246;28;20022;-83
2023/06/14 00:53:20;;;;;;;12.05;6.43;;;14.70;64.90;;;;;;5015137;28;20059;-83
2023/06/14 00:55:47;;;;;;;15.60;6.60;;;14.70;64.90;;;;;;5014935;28;20046;-83
2023/06/14 00:58:14;;;;;;;15.05;7.88;;;14.70;64.90;;;;;;5016123;28;20488;-83
2023/06/14 01:00:40;;;;;;;10.70;5.95;;;14.70;64.90;;;;;;5015814;28;20207;-83
2023/06/14 01:03:06;;;;;;;13.80;7.15;;;14.60;65.20;;;;;;5001691;28;20101;-82
2023/06/14 01:05:32;;;;;;;11.80;6.95;;;14.60;65.40;;;;;;5015195;28;20029;-82
2023/06/14 01:08:18;;;;;;;12.02;7.82;;;14.60;65.60;;;;;;5015268;28;20018;-83
2023/06/14 01:10:53;;;;;;;18.63;7.72;;;14.60;65.70;;;;;;4998261;28;20447;-81
2023/06/14 01:13:29;;;;;;;13.23;7.50;;;14.60;66.40;;;;;;5003239;28;20488;-82
2023/06/14 01:15:56;;;;;;;13.63;7.43;;;14.50;65.80;;;;;;5019445;28;20041;-83
2023/06/14 01:18:23;;;;;;;12.45;7.32;;;14.60;66.10;;;;;;5020830;28;20022;-83
2023/06/14 01:20:50;;;;;;;16.20;8.07;;;14.50;66.10;;;;;;5038023;28;20037;-83
2023/06/14 01:23:21;;;;;;;11.60;7.40;;;14.50;66.10;;;;;;5037039;28;20026;-82
2023/06/14 01:25:47;;;;;;;10.13;7.40;;;14.60;66.10;;;;;;5017465;28;20379;-82
2023/06/14 01:28:16;;;;;;;14.23;8.43;;;14.60;66.00;;;;;;5014678;28;20036;-83
2023/06/14 01:30:47;;;;;;;13.52;8.13;;;14.70;65.90;;;;;;5014222;28;20029;-84
2023/06/14 01:33:18;;;;;;;14.05;7.93;;;14.70;65.90;;;;;;5009931;28;20109;-82
2023/06/14 01:35:51;;;;;;;11.98;6.82;;;14.80;65.80;;;;;;5018761;28;20034;-83
2023/06/14 01:38:25;;;;;;;14.07;7.85;;;14.80;65.90;;;;;;5015109;28;20021;-82
2023/06/14 01:40:53;;;;;;;14.18;7.70;;;14.70;66.00;;;;;;5014928;28;20080;-82
2023/06/14 01:43:20;;;;;;;12.75;9.02;;;14.80;66.00;;;;;;5014222;28;20049;-84
2023/06/14 01:45:51;;;;;;;13.20;8.88;;;14.80;66.00;;;;;;4996246;28;20026;-82
2023/06/14 01:48:17;;;;;;;11.20;8.15;;;14.80;66.10;;;;;;5014053;28;20022;-82
2023/06/14 01:50:43;;;;;;;11.50;8.60;;;14.90;66.00;;;;;;5014428;28;20435;-83
2023/06/14 01:53:09;;;;;;;18.77;9.35;;;14.90;65.80;;;;;;5013159;28;20018;-83
2023/06/14 01:55:37;;;;;;;13.75;8.80;;;15.00;65.70;;;;;;5013779;28;20060;-82
2023/06/14 01:58:03;;;;;;;;;;;15.10;65.80;;;;;;5014121;28;20018;-82
2023/06/14 02:00:29;;;;;;;16.85;7.97;;;15.10;65.20;;;;;;5013765;28;19929;-83
2023/06/14 02:02:55;;;;;;;12.75;8.30;;;15.10;65.70;;;;;;5014208;28;20132;-82
2023/06/14 02:05:21;;;;;;;13.02;8.65;;;15.10;65.70;;;;;;5016949;28;20026;-82
2023/06/14 02:07:47;;;;;;;15.75;9.15;;;15.10;65.60;;;;;;5014820;28;20025;-83
2023/06/14 02:10:14;;;;;;;14.98;8.38;;;15.10;65.80;;;;;;4998282;28;20029;-84
2023/06/14 02:12:40;;;;;;;20.85;9.88;;;15.20;65.60;;;;;;4999717;28;20041;-83
2023/06/14 02:15:06;;;;;;;14.00;8.38;;;15.20;65.40;;;;;;4997109;28;20108;-82
2023/06/14 02:17:33;;;;;;;15.73;8.60;;;15.30;65.20;;;;;;5014430;28;20116;-84
2023/06/14 02:19:59;;;;;;;12.20;9.05;;;15.30;65.30;;;;;;5015609;28;20026;-81
2023/06/14 02:22:25;;;;;;;15.68;9.05;;;15.40;65.20;;;;;;4997301;28;20471;-81
2023/06/14 02:24:51;;;;;;;17.75;10.63;;;15.40;65.00;;;;;;4996791;28;20033;-83
2023/06/14 02:27:17;;;;;;;22.63;9.50;;;15.50;64.70;;;;;;5014596;28;20037;-82
2023/06/14 02:29:43;;;;;;;16.63;9.57;;;15.50;64.70;;;;;;4999355;28;20064;-83
2023/06/14 02:32:09;;;;;;;14.48;9.20;;;15.60;64.60;;;;;;5028338;28;20021;-81
2023/06/14 02:34:35;;;;;;;14.60;9.60;;;15.60;64.40;;;;;;5018582;28;20026;-82
2023/06/14 02:37:05;;;;;;;20.55;10.00;;;15.70;64.40;;;;;;5013128;28;20527;-84
2023/06/14 02:39:31;;;;;;;17.73;9.70;;;15.70;64.20;;;;;;5013126;28;20022;-82
2023/06/14 02:41:56;;;;;;;19.83;9.35;;;15.80;64.00;;;;;;4982053;28;20029;-83
2023/06/14 02:44:27;;;;;;;20.42;9.88;;;15.90;63.90;;;;;;5013262;28;20026;-84
2023/06/14 02:46:54;;;;;;;14.90;9.75;;;15.90;63.60;;;;;;4995400;28;20026;-83
2023/06/14 02:49:20;;;;;;;13.55;10.32;;;16.00;63.80;;;;;;5009395;28;20424;-84
2023/06/14 02:51:46;;;;;;;19.88;10.57;;;16.00;63.40;;;;;;5013968;28;20178;-83
2023/06/14 02:54:11;;;;;;;18.65;9.73;;;16.10;63.30;;;;;;4996351;28;20025;-84
2023/06/14 02:56:37;;;;;;;18.83;9.63;;;16.20;63.30;;;;;;5012586;28;20093;-83
2023/06/14 02:59:03;;;;;;;19.95;10.65;;;16.30;63.00;;;;;;5013891;28;20021;-83
2023/06/14 03:01:34;;;;;;;17.80;10.85;;;16.50;62.60;;;;;;5015532;28;20077;-83
2023/06/14 03:04:03;;;;;;;14.18;10.35;;;16.60;62.20;;;;;;5017702;28;20018;-83
2023/06/14 03:06:33;;;;;;;15.70;9.40;;;16.70;61.60;;;;;;5015818;28;20061;-83
2023/06/14 03:09:00;;;;;;;18.35;10.90;;;16.90;61.40;;;;;;5015918;28;20029;-84
2023/06/14 03:11:27;;;;;;;15.77;11.02;;;17.20;60.80;;;;;;5022168;28;20021;-83
2023/06/14 03:13:53;;;;;;;20.75;10.45;;;17.50;60.20;;;;;;5031439;28;20037;-83
2023/06/14 03:16:21;;;;;;;21.65;11.07;;;17.60;59.60;;;;;;5021166;28;20508;-83
2023/06/14 03:18:51;;;;;;;18.55;11.15;;;17.60;59.40;;;;;;5006691;28;20490;-84
2023/06/14 03:21:17;;;;;;;21.17;11.27;;;17.60;59.60;;;;;;5017400;28;20111;-84
2023/06/14 03:23:44;;;;;;;17.90;10.85;;;17.60;59.70;;;;;;5014491;28;20051;-83
2023/06/14 03:26:13;;;;;;;14.43;10.23;;;17.60;59.40;;;;;;5015392;28;20022;-82
2023/06/14 03:28:40;;;;;;;16.45;10.80;;;17.60;59.30;;;;;;4999430;28;20257;-83
2023/06/14 03:31:06;;;;;;;17.35;10.43;;;17.60;59.50;;;;;;5012425;28;20042;-83
2023/06/14 03:33:32;;;;;;;20.77;11.32;;;17.60;59.40;;;;;;5012692;28;20025;-85
2023/06/14 03:35:58;;;;;;;18.15;12.63;;;17.60;59.40;;;;;;5012852;28;20037;-84
2023/06/14 03:38:23;;;;;;;17.35;11.48;;;17.60;59.60;;;;;;4995132;28;20033;-83
2023/06/14 03:40:49;;;;;;;17.05;13.23;;;17.70;59.70;;;;;;5013248;28;20049;-82
2023/06/14 03:43:15;;;;;;;19.05;13.20;;;17.70;59.40;;;;;;5011797;28;20143;-83
2023/06/14 03:45:41;;;;;;;25.17;15.63;;;17.80;59.10;;;;;;5013561;28;20104;-83
2023/06/14 03:48:08;;;;;;;23.10;16.73;;;17.90;58.50;;;;;;5013067;28;20030;-82
2023/06/14 03:50:34;;;;;;;;;;;18.00;58.10;;;;;;5014234;28;20148;-84
2023/06/14 03:53:01;;;;;;;20.60;16.35;;;18.00;58.20;;;;;;5021533;28;20321;-84
2023/06/14 03:55:27;;;;;;;24.67;16.58;;;18.00;57.70;;;;;;5015683;28;20046;-83
2023/06/14 03:57:53;;;;;;;22.15;14.60;;;18.10;57.70;;;;;;5013496;28;20424;-83
2023/06/14 04:00:19;;;;;;;21.55;14.95;;;18.20;57.50;;;;;;5013115;28;20065;-84
2023/06/14 04:02:45;;;;;;;20.85;14.13;;;18.20;57.10;;;;;;5013336;28;20393;-81
2023/06/14 04:05:11;;;;;;;22.60;16.67;;;18.30;57.30;;;;;;5019555;28;20089;-83
2023/06/14 04:07:40;;;;;;;23.15;16.92;;;18.40;57.20;;;;;;4996691;28;20483;-84
2023/06/14 04:10:10;;;;;;;19.83;14.70;;;18.50;57.00;;;;;;4998868;28;20049;-84
2023/06/14 04:12:37;;;;;;;30.05;19.50;;;18.50;57.00;;;;;;5022813;28;20038;-85
2023/06/14 04:15:05;;;;;;;22.10;15.25;;;18.60;56.60;;;;;;5027063;28;20080;-84
2023/06/14 04:17:32;;;;;;;22.55;13.07;;;18.70;56.40;;;;;;5007831;28;20026;-84
2023/06/14 04:19:59;;;;;;;18.67;12.93;;;18.70;55.70;;;;;;5005421;28;20081;-84
2023/06/14 04:22:28;;;;;;;18.77;14.27;;;18.80;55.50;;;;;;5004845;28;20042;-83
2023/06/14 04:24:56;;;;;;;18.67;15.25;;;18.90;55.50;;;;;;5001429;28;20027;-83
2023/06/14 04:27:25;;;;;;;21.92;14.07;;;19.00;55.40;;;;;;4987880;28;20065;-83
2023/06/14 04:29:59;;;;;;;23.92;15.70;;;19.00;55.70;;;;;;4998053;28;20035;-82
2023/06/14 04:32:26;;;;;;;21.92;14.75;;;19.10;55.70;;;;;;5002024;28;20045;-82
2023/06/14 04:34:56;;;;;;;25.08;15.32;;;19.10;55.40;;;;;;5002142;28;20496;-84
2023/06/14 04:37:22;;;;;;;19.40;13.75;;;19.10;55.30;;;;;;5015023;28;20031;-82
2023/06/14 04:39:51;;;;;;;19.33;12.10;;;19.20;55.20;;;;;;5016083;28;20042;-82
2023/06/14 04:42:20;;;;;;;18.20;11.40;;;19.30;54.70;;;;;;4995067;28;20030;-81
2023/06/14 04:44:47;;;;;;;13.85;10.38;;;19.40;54.40;;;;;;4993549;28;20084;-84
2023/06/14 04:47:14;;;;;;;18.00;10.90;;;19.40;54.20;;;;;;4993476;28;20109;-83
2023/06/14 04:49:40;;;;;;;12.10;10.18;;;19.40;54.20;;;;;;4992587;28;20022;-83
2023/06/14 04:52:07;;;;;;;15.55;9.88;;;19.40;54.20;;;;;;5015267;28;20045;-82
2023/06/14 04:54:34;;;;;;;18.90;10.03;;;19.50;54.00;;;;;;5022889;28;20045;-81
2023/06/14 04:57:00;;;;;;;13.93;8.57;;;19.50;53.90;;;;;;5017920;28;20049;-82
2023/06/14 04:59:27;;;;;;;11.30;8.68;;;19.60;54.00;;;;;;5014874;28;20058;-82
2023/06/14 05:01:54;;;;;;;15.68;8.60;;;19.70;53.60;;;;;;4997396;28;20018;-82
2023/06/14 05:04:21;;;;;;;15.52;8.73;;;19.80;53.90;;;;;;5015412;28;20467;-84
2023/06/14 05:06:48;;;;;;;;;;;19.90;52.90;;;;;;4999054;28;20483;-82
2023/06/14 05:09:17;;;;;;;14.63;9.00;;;20.00;53.50;;;;;;5016616;28;19921;-84
2023/06/14 05:11:43;;;;;;;14.05;8.27;;;20.10;54.00;;;;;;4997500;28;20164;-84
2023/06/14 05:14:13;;;;;;;14.60;7.55;;;20.70;52.80;;;;;;5015731;28;20064;-83
2023/06/14 05:16:40;;;;;;;14.32;8.02;;;21.50;51.20;;;;;;5016658;28;20026;-83
2023/06/14 05:19:06;;;;;;;11.40;8.73;;;22.50;49.40;;;;;;5014853;28;20494;-86
2023/06/14 05:21:34;;;;;;;16.40;7.50;;;23.80;47.10;;;;;;5015066;28;20034;-85
2023/06/14 05:24:01;;;;;;;11.55;8.98;;;;;;;;;;5017526;28;20014;-85
2023/06/14 05:26:30;;;;;;;12.13;7.65;;;25.00;44.80;;;;;;5015136;28;20491;-84
2023/06/14 05:28:57;;;;;;;17.13;10.52;;;27.00;42.30;;;;;;5014529;28;20040;-85
2023/06/14 05:31:26;;;;;;;10.93;7.78;;;27.70;40.90;;;;;;4998086;28;20057;-83
2023/06/14 05:33:52;;;;;;;16.15;9.23;;;27.80;40.00;;;;;;5015274;28;20025;-84
2023/06/14 05:36:22;;;;;;;10.73;6.93;;;28.30;38.30;;;;;;5014032;28;20045;-82
2023/06/14 05:38:48;;;;;;;8.65;6.28;;;28.30;38.20;;;;;;5013698;28;20084;-83
2023/06/14 05:41:14;;;;;;;7.75;5.75;;;28.30;38.30;;;;;;4996767;28;20487;-84
2023/06/14 05:43:40;;;;;;;12.02;6.50;;;29.40;37.50;;;;;;5016453;28;20045;-80
2023/06/14 05:46:06;;;;;;;9.25;6.88;;;29.50;36.30;;;;;;5015069;28;20062;-83
2023/06/14 05:48:32;;;;;;;13.23;6.40;;;29.50;36.30;;;;;;5014403;28;20033;-82
2023/06/14 05:50:59;;;;;;;15.02;6.82;;;29.30;36.50;;;;;;5015067;28;20030;-81
2023/06/14 05:53:25;;;;;;;6.78;5.28;;;29.50;36.30;;;;;;5001900;28;20018;-88
2023/06/14 05:55:54;;;;;;;12.25;5.05;;;30.00;35.50;;;;;;5022150;28;20077;-83
2023/06/14 05:58:21;;;;;;;9.73;4.40;;;30.20;35.30;;;;;;4997635;28;20030;-85
2023/06/14 06:00:47;;;;;;;;;;;30.40;35.10;;;;;;5017300;28;20042;-87
2023/06/14 06:03:13;;;;;;;7.90;4.10;;;30.70;35.90;;;;;;5015723;28;19913;-86
2023/06/14 06:05:39;;;;;;;10.37;4.20;;;31.20;34.40;;;;;;5020210;28;20026;-87
2023/06/14 06:08:06;;;;;;;10.85;4.63;;;31.60;33.40;;;;;;5003267;28;20037;-87
2023/06/14 06:10:34;;;;;;;8.65;3.70;;;32.10;32.90;;;;;;5006630;28;20044;-86
2023/06/14 06:13:01;;;;;;;6.18;5.10;;;;;;;;;;5003947;28;20022;-85
2023/06/14 06:15:27;;;;;;;9.57;6.57;;;32.90;32.30;;;;;;5024933;28;20041;-85
2023/06/14 06:17:56;;;;;;;7.20;4.97;;;34.30;30.90;;;;;;5006053;28;20025;-86
2023/06/14 06:20:27;;;;;;;7.38;4.20;;;34.10;30.90;;;;;;5021949;28;20030;-85
2023/06/14 06:22:53;;;;;;;9.65;4.55;;;34.40;30.60;;;;;;5002834;28;20052;-84
2023/06/14 06:25:19;;;;;;;5.97;3.22;;;35.10;30.00;;;;;;5015193;28;20113;-86
2023/06/14 06:27:45;;;;;;;18.57;8.43;;;35.50;30.00;;;;;;5012543;28;20459;-86
2023/06/14 06:30:12;;;;;;;7.80;3.73;;;36.10;29.80;;;;;;5013819;28;20050;-86
2023/06/14 06:32:37;;;;;;;6.45;4.10;;;35.80;29.50;;;;;;5000152;28;20263;-86
2023/06/14 06:35:06;;;;;;;7.57;3.53;;;36.30;29.00;;;;;;5007169;28;20033;-85
2023/06/14 06:37:31;;;;;;;4.53;3.03;;;36.50;28.90;;;;;;5028273;28;20022;-83
2023/06/14 06:39:57;;;;;;;6.33;3.63;;;37.00;28.70;;;;;;5019357;28;20464;-87
2023/06/14 06:42:24;;;;;;;6.05;4.47;;;37.10;28.10;;;;;;5004252;28;20310;-85
2023/06/14 06:44:50;;;;;;;4.53;2.85;;;36.10;28.30;;;;;;5016459;28;20427;-87
2023/06/14 06:47:15;;;;;;;12.05;4.90;;;35.70;28.70;;;;;;5016930;28;20026;-87
2023/06/14 06:49:41;;;;;;;4.75;2.70;;;35.80;28.80;;;;;;4998872;28;20026;-86
2023/06/14 06:52:08;;;;;;;7.83;3.60;;;35.30;28.40;;;;;;5016245;28;20093;-86
2023/06/14 06:54:34;;;;;;;5.57;3.78;;;35.10;29.10;;;;;;5016376;28;20045;-87
2023/06/14 06:57:01;;;;;;;;;;;35.80;28.90;;;;;;5020570;28;20049;-88
2023/06/14 06:59:27;;;;;;;7.55;3.83;;;36.00;29.00;;;;;;5016343;28;19979;-87
2023/06/14 07:01:53;;;;;;;9.80;3.03;;;36.10;28.50;;;;;;4999658;28;20037;-88
2023/06/14 07:04:19;;;;;;;5.75;3.47;;;36.30;28.00;;;;;;4999760;28;20349;-86
2023/06/14 07:06:46;;;;;;;9.90;5.88;;;36.20;28.10;;;;;;5016776;28;20037;-86
2023/06/14 07:09:14;;;;;;;10.75;6.20;;;36.70;28.10;;;;;;4999502;28;20061;-87
2023/06/14 07:11:40;;;;;;;7.18;4.30;;;36.30;27.90;;;;;;5014670;28;20383;-89
2023/06/14 07:14:06;;;;;;;6.80;3.33;;;35.10;28.40;;;;;;5006066;28;20383;-86
2023/06/14 07:16:33;;;;;;;5.13;3.57;;;35.10;29.00;;;;;;5015267;28;20033;-87
2023/06/14 07:19:00;;;;;;;9.18;4.15;;;35.70;29.00;;;;;;5001960;28;20029;-86
2023/06/14 07:21:26;;;;;;;3.35;3.05;;;36.80;28.50;;;;;;5004270;28;20491;-89
2023/06/14 07:23:53;;;;;;;6.10;3.75;;;37.20;27.90;;;;;;4998539;28;20029;-89
2023/06/14 07:26:19;;;;;;;11.25;6.88;;;36.90;27.80;;;;;;5021773;28;20026;-88
2023/06/14 07:28:44;;;;;;;4.43;3.55;;;36.30;28.20;;;;;;5025473;28;20022;-87
2023/06/14 07:31:12;;;;;;;3.47;2.95;;;36.60;27.90;;;;;;5038139;28;20032;-87
2023/06/14 07:33:38;;;;;;;10.77;3.72;;;37.60;27.90;;;;;;5025850;28;20078;-87
2023/06/14 07:36:04;;;;;;;;;;;;;;;;;;5004062;28;20045;-86
2023/06/14 07:38:30;;;;;;;3.97;3.15;;;;;;;;;;5019559;28;20286;-86
2023/06/14 07:40:57;;;;;;;4.95;3.13;;;;;;;;;;5016011;28;20120;-88
2023/06/14 07:43:23;;;;;;;5.40;2.90;;;;;;;;;;5003608;28;20064;-87
2023/06/14 07:45:48;;;;;;;;;;;40.50;27.00;;;;;;5015088;28;20025;-87
2023/06/14 07:48:15;;;;;;;9.73;3.58;;;;;;;;;;5025540;28;19916;-87
2023/06/14 07:50:40;;;;;;;;;;;;;;;;;;5028663;28;20021;-86
2023/06/14 07:53:07;;;;;;;5.28;2.63;;;;;;;;;;5019790;28;19900;-89
2023/06/14 07:55:33;;;;;;;16.55;8.75;;;;;;;;;;5015701;28;20050;-87
2023/06/14 07:57:59;;;;;;;7.80;3.08;;;;;;;;;;5003025;28;20023;-90
2023/06/14 08:00:25;;;;;;;;;;;;;;;;;;5000850;28;20492;-86
2023/06/14 08:02:58;;;;;;;9.25;3.85;;;;;;;;;;4999704;28;19913;-87
2023/06/14 08:05:27;;;;;;;9.75;6.40;;;42.90;27.00;;;;;;4999761;28;20030;-88
2023/06/14 08:07:52;;;;;;;6.47;2.97;;;39.40;26.50;;;;;;4990011;28;20018;-89
2023/06/14 08:10:18;;;;;;;5.88;3.03;;;39.50;25.70;;;;;;4998110;28;20029;-86
2023/06/14 08:12:44;;;;;;;11.48;4.10;;;40.00;26.30;;;;;;5003598;28;20037;-88
2023/06/14 08:15:12;;;;;;;3.83;2.90;;;40.60;26.30;;;;;;5014535;28;20042;-89
2023/06/14 08:17:38;;;;;;;4.43;3.20;;;40.70;26.50;;;;;;5000176;28;20096;-87
2023/06/14 08:20:06;;;;;;;8.50;3.42;;;40.30;26.30;;;;;;4996967;28;20125;-88
2023/06/14 08:22:33;;;;;;;6.43;2.80;;;40.90;26.40;;;;;;4999107;28;20030;-86
2023/06/14 08:25:01;;;;;;;6.75;3.22;;;41.90;26.20;;;;;;4998741;28;20033;-88
2023/06/14 08:27:27;;;;;;;5.43;3.00;;;;;;;;;;4996386;28;20034;-87
2023/06/14 08:29:53;;;;;;;6.20;3.05;;;42.50;26.00;;;;;;5002183;28;20035;-87
2023/06/14 08:32:19;;;;;;;;;;;43.40;25.80;;;;;;5011012;28;20026;-87
2023/06/14 08:34:45;;;;;;;4.70;3.13;;;43.20;26.00;;;;;;5002531;28;19909;-85
2023/06/14 08:37:11;;;;;;;6.88;3.10;;;42.00;25.40;;;;;;4999898;28;20384;-86
2023/06/14 08:39:37;;;;;;;6.13;3.15;;;40.40;25.90;;;;;;4995899;28;20030;-85
2023/06/14 08:42:03;;;;;;;7.18;3.60;;;39.10;26.50;;;;;;4997212;28;20019;-88
2023/06/14 08:44:30;;;;;;;7.65;3.25;;;38.10;27.10;;;;;;5001654;28;20022;-89
2023/06/14 08:46:59;;;;;;;4.20;3.03;;;38.50;27.20;;;;;;4999851;28;20022;-86
2023/06/14 08:49:25;;;;;;;4.47;2.90;;;39.90;26.90;;;;;;5003842;28;20038;-87
2023/06/14 08:51:57;;;;;;;;;;;40.90;26.50;;;;;;5002335;28;20029;-87
2023/06/14 08:54:24;;;;;;;7.50;3.55;;;41.30;26.60;;;;;;5004924;28;20391;-86
2023/06/14 08:56:52;;;;;;;6.68;3.13;;;41.60;26.20;;;;;;5017298;28;20042;-86
2023/06/14 08:59:18;;;;;;;5.35;3.15;;;41.20;26.60;;;;;;5002672;28;20383;-87
2023/06/14 09:01:49;;;;;;;5.18;3.50;;;40.50;26.40;;;;;;5000430;28;20141;-88
2023/06/14 09:04:15;;;;;;;4.20;3.42;;;40.70;26.10;;;;;;5000450;28;20553;-87
2023/06/14 09:06:41;;;;;;;5.10;3.03;;;40.40;26.40;;;;;;5004961;28;20116;-87
2023/06/14 09:09:07;;;;;;;4.28;3.55;;;40.80;26.10;;;;;;5006245;28;20032;-86
2023/06/14 09:14:39;;;;;;;;;;;41.20;26.50;;;;;;5028828;28;19924;-88
2023/06/14 09:17:21;;;;;;;4.05;2.80;;;41.20;26.20;;;;;;5023353;28;19928;-87
2023/06/14 09:19:47;;;;;;;4.22;3.08;;;41.30;25.50;;;;;;4982496;28;20048;-86
2023/06/14 09:25:33;;;;;;;4.57;3.40;;;40.60;26.00;;;;;;4991022;28;20405;-88
2023/06/14 09:27:59;;;;;;;7.50;3.08;;;40.90;26.20;;;;;;5016640;28;20038;-87
2023/06/14 09:30:25;;;;;;;;;;;40.90;25.90;;;;;;5021428;28;20026;-85
2023/06/14 09:32:51;;;;;;;7.72;2.90;;;40.80;26.20;;;;;;5016145;28;19937;-88
2023/06/14 09:35:20;;;;;;;4.25;3.00;;;40.20;25.90;;;;;;5015882;28;20022;-87
2023/06/14 09:37:47;;;;;;;11.98;4.38;;;40.30;26.10;;;;;;5018791;28;20536;-86
2023/06/14 09:40:13;;;;;;;5.47;3.38;;;40.90;26.10;;;;;;5015572;28;20064;-85
2023/06/14 09:42:39;;;;;;;;;;;39.90;26.00;;;;;;5014291;28;20440;-86
2023/06/14 09:45:11;;;;;;;7.97;3.72;;;40.30;26.50;;;;;;5014490;28;20394;-87
2023/06/14 09:47:37;;;;;;;4.30;2.83;;;41.20;26.20;;;;;;5015260;28;20034;-87
2023/06/14 09:50:03;;;;;;;5.22;3.00;;;41.80;25.80;;;;;;5015259;28;20028;-87
2023/06/14 09:52:29;;;;;;;;;;;42.00;25.60;;;;;;5016060;28;20097;-84
2023/06/14 09:54:55;;;;;;;;;;;41.90;25.90;;;;;;5023212;28;19921;-87
2023/06/14 09:57:26;;;;;;;;;;;41.50;25.60;;;;;;5022141;28;19999;-88
2023/06/14 10:00:00;;;;;;;;;;;40.60;25.70;;;;;;5017381;28;20346;-87
2023/06/14 10:02:47;;;;;;;;;;;39.70;26.30;;;;;;5027268;28;19976;-89
2023/06/14 10:05:15;;;;;;;;;;;39.70;26.50;;;;;;5022457;28;19975;-86
2023/06/14 10:07:52;;;;;;;;;;;39.90;26.40;;;;;;5013945;28;19963;-87
2023/06/14 10:10:47;;;;;;;;;;;;;;;;;;;;;
2023/06/14 10:13:14;;;;;;;;;;;40.40;26.60;;;;;;5017671;28;19916;-88
2023/06/14 10:15:40;;;;;;;;;;;;;;;;;;4998896;28;19913;-86
2023/06/14 10:21:53;;;;;;;;;;;37.50;27.10;;;;;;4956511;29;19918;-87
2023/06/14 10:24:50;;;;;;;;;;;37.50;27.60;;;;;;4957050;29;19929;-86
2023/06/14 10:27:24;;;;;;;;;;;38.70;27.30;;;;;;4912078;29;19906;-88
2023/06/14 10:29:53;;;;;;;;;;;39.10;26.90;;;;;;4939023;29;19907;-87
2023/06/14 10:32:19;;;;;;;;;;;37.90;26.80;;;;;;4950033;29;20412;-87
2023/06/14 10:34:45;;;;;;;;;;;35.90;27.20;;;;;;4938659;29;20020;-85
2023/06/14 10:37:12;;;;;;;;;;;33.40;28.00;;;;;;4955890;28;19922;-87
2023/06/14 10:39:40;;;;;;;;;;;31.40;29.00;;;;;;4955704;29;19930;-87
2023/06/14 10:42:06;;;;;;;;;;;30.00;30.90;;;;;;4959300;28;19957;-84
2023/06/14 10:44:41;;;;;;;;;;;;;;;;;;4959328;29;19997;-87
2023/06/14 10:47:08;;;;;;;;;;;;;;;;;;4938443;29;19907;-86
2023/06/14 10:49:34;;;;;;;;;;;;;;;;;;4955345;29;19910;-86
2023/06/14 10:52:00;;;;;;;;;;;;;;;;;;4956967;29;19910;-87
2023/06/14 10:54:27;;;;;;;;;;;;;;;;;;4962599;28;19918;-86
2023/06/14 10:56:54;;;;;;;;;;;;;;;;;;5020881;28;19957;-87
2023/06/14 10:59:20;;;;;;;;;;;;;;;;;;5024572;28;19952;-87
2023/06/14 11:01:46;;;;;;;;;;;29.00;30.30;;;;;;5028251;28;19905;-86
2023/06/14 11:04:12;;;;;;;;;;;26.30;34.40;;;;;;5024699;28;19913;-86
2023/06/14 11:06:48;;;;;;;;;;;25.90;34.20;;;;;;5025636;28;19913;-86
2023/06/14 11:09:41;;;;;;;;;;;25.60;34.70;;;;;;5010010;28;19913;-85
2023/06/14 11:12:10;;;;;;;;;;;25.40;34.90;;;;;;5010584;28;19909;-87
2023/06/14 11:14:35;;;;;;;;;;;25.30;35.40;;;;;;5006109;28;20349;-86
2023/06/14 11:17:01;;;;;;;;;;;25.30;35.90;;;;;;5016363;28;19968;-87
2023/06/14 11:19:29;;;;;;;;;;;;;;;;;;5017823;28;19936;-86
2023/06/14 11:21:55;;;;;;;;;;;;;;;;;;5008321;28;19916;-85
2023/06/14 11:24:21;;;;;;;;;;;;;;;;;;5020036;28;19940;-85
2023/06/14 11:26:47;;;;;;;;;;;;;;;;;;5018005;28;19914;-87
2023/06/14 11:29:15;;;;;;;;;;;25.20;35.70;;;;;;5001344;28;19999;-86
2023/06/14 11:31:45;;;;;;;;;;;25.10;37.40;;;;;;4997212;28;20015;-85
2023/06/14 11:34:11;;;;;;;;;;;25.00;37.10;;;;;;5015700;28;19956;-86
2023/06/14 11:36:38;;;;;;;;;;;25.00;37.10;;;;;;5004077;28;19940;-86
2023/06/14 11:39:09;;;;;;;;;;;25.00;37.30;;;;;;5012743;28;19943;-86
2023/06/14 11:41:39;;;;;;;;;;;25.00;36.90;;;;;;5003022;28;19909;-87
2023/06/14 11:44:06;;;;;;;;;;;24.90;36.90;;;;;;5012929;28;19910;-86
2023/06/14 11:46:31;;;;;;;;;;;24.80;36.60;;;;;;5024473;28;19906;-86
2023/06/14 11:48:57;;;;;;;;;;;24.80;37.40;;;;;;5018024;28;20000;-87
2023/06/14 11:51:23;;;;;;;;;;;24.80;37.40;;;;;;5015923;28;19913;-86
2023/06/14 11:53:52;;;;;;;;;;;24.80;37.30;;;;;;5014393;28;20389;-87
2023/06/14 11:56:19;;;;;;;;;;;24.80;37.50;;;;;;4978541;28;20012;-86
2023/06/14 11:58:45;;;;;;;;;;;24.70;37.80;;;;;;5009772;28;19913;-84
2023/06/14 12:01:14;;;;;;;;;;;24.70;38.00;;;;;;5008975;28;19910;-84
2023/06/14 12:03:46;;;;;;;;;;;24.60;37.80;;;;;;5026704;28;19912;-85
2023/06/14 12:06:12;;;;;;;;;;;24.50;37.60;;;;;;5015745;28;19906;-87
2023/06/14 12:08:41;;;;;;;;;;;24.50;37.80;;;;;;5017629;28;19996;-87
2023/06/14 12:11:13;;;;;;;;;;;24.50;38.10;;;;;;5019563;28;19912;-86
2023/06/14 12:13:40;;;;;;;;;;;24.50;38.00;;;;;;5025287;28;19909;-88
2023/06/14 12:16:09;;;;;;;;;;;24.60;37.90;;;;;;5009305;28;20375;-85
2023/06/14 12:18:35;;;;;;;;;;;24.60;38.20;;;;;;5015236;28;20413;-86
2023/06/14 12:21:02;;;;;;;;;;;24.60;38.10;;;;;;5000116;28;19905;-85
2023/06/14 12:23:47;;;;;;;;;;;24.60;38.30;;;;;;5015181;28;20075;-86
2023/06/14 12:26:16;;;;;;;;;;;24.60;38.20;;;;;;5002860;28;19905;-88
2023/06/14 12:28:43;;;;;;;;;;;24.60;38.00;;;;;;5017621;28;19905;-86
2023/06/14 12:31:09;;;;;;;;;;;24.50;38.20;;;;;;5022001;28;19909;-86
2023/06/14 12:33:35;;;;;;;;;;;24.30;38.00;;;;;;5020871;28;20303;-87
2023/06/14 12:36:03;;;;;;;;;;;24.30;38.10;;;;;;4999677;28;19982;-86
2023/06/14 12:38:28;;;;;;;;;;;24.30;38.40;;;;;;5016802;28;19905;-87
2023/06/14 12:40:54;;;;;;;;;;;24.40;38.00;;;;;;5017448;28;19915;-86
2023/06/14 12:43:20;;;;;;;;;;;24.40;37.50;;;;;;5007926;28;19906;-87
2023/06/14 12:45:46;;;;;;;;;;;24.40;37.60;;;;;;5025666;28;19932;-87
2023/06/14 12:48:11;;;;;;;;;;;24.40;37.20;;;;;;4999840;28;19932;-86
2023/06/14 12:50:37;;;;;;;;;;;24.40;37.30;;;;;;5017976;28;19905;-85
2023/06/14 12:53:03;;;;;;;;;;;24.40;37.50;;;;;;5017539;28;20646;-86
2023/06/14 12:55:28;;;;;;;;;;;24.50;37.30;;;;;;5017588;28;19921;-87
2023/06/14 12:57:54;;;;;;;;;;;24.50;37.30;;;;;;5020037;28;19912;-84
2023/06/14 13:00:21;;;;;;;;;;;24.50;36.90;;;;;;5006462;28;19906;-87
2023/06/14 13:02:47;;;;;;;;;;;24.50;37.20;;;;;;5007405;28;19913;-86
2023/06/14 13:05:12;;;;;;;;;;;24.50;37.40;;;;;;5020139;28;19909;-87
2023/06/14 13:07:38;;;;;;;;;;;24.50;37.50;;;;;;5004786;28;19909;-84
2023/06/14 13:10:04;;;;;;;;;;;24.50;37.80;;;;;;5013921;28;19917;-87
2023/06/14 13:12:45;;;;;;;;;;;24.40;37.60;;;;;;5016660;28;19913;-85
2023/06/14 13:15:18;;;;;;;;;;;24.40;37.70;;;;;;4994485;28;19913;-85
2023/06/14 13:17:48;;;;;;;;;;;24.40;38.20;;;;;;5021069;28;20402;-86
2023/06/14 13:20:14;;;;;;;;;;;24.30;38.10;;;;;;5018094;28;19919;-86
2023/06/14 13:22:40;;;;;;;;;;;24.20;38.20;;;;;;5017553;28;19906;-87
2023/06/14 13:25:06;;;;;;;;;;;24.20;38.50;;;;;;5003011;28;20278;-86
2023/06/14 13:27:32;;;;;;;;;;;24.20;38.40;;;;;;5021400;28;19995;-85